Flight Track Log - Related Links

Times and Time Zones

All times are in EST time to prevent confusion due to time zone crossing. See the SWA1688 flight status page for this flight to view local times or setup timezone preferences in your user account.

Time Position Orientation Groundspeed Altitude Reporting Facility
EST Latitude Longitude Course Direction KTS MPH feet Rate Location/Type
Sat 11:10:03 AM 30.1417 -97.7606 278° West 249 287 4,800  Level Houston Center
Sat 11:11:05 AM 30.1894 -97.8353 307° West 277 319 8,000 2,806 Climbing Houston Center
Sat 11:12:07 AM 30.2075 -97.9278 283° West 279 321 10,600 2,129 Climbing Houston Center
Sat 11:13:09 AM 30.2328 -98.0389 285° West 330 380 12,400 1,839 Climbing Houston Center
Sat 11:14:00 AM 30.4167 -97.9478 270° West  Level FlightAware Approximate
Sat 11:14:11 AM 30.2550 -98.1389 284° West 342 394 14,400  Level Houston Center
Sat 11:15:00 AM 30.4226 -98.0638 278° West  Level FlightAware Approximate
Sat 11:15:13 AM 30.2828 -98.2569 285° West 349 402 17,000  Level Houston Center
Sat 11:16:15 AM 30.3064 -98.3669 284° West 351 404 18,600 1,645 Climbing Houston Center
Sat 11:17:17 AM 30.3317 -98.4772 285° West 367 422 20,400 1,790 Climbing Houston Center
Sat 11:18:19 AM 30.3622 -98.6142 285° West 374 430 22,300 1,645 Climbing Houston Center
Sat 11:19:21 AM 30.3878 -98.7331 284° West 375 432 23,800 1,210 Climbing Houston Center
Sat 11:20:23 AM 30.4139 -98.8564 284° West 388 447 24,800 1,258 Climbing Houston Center
Sat 11:21:25 AM 30.4431 -98.9803 285° West 393 452 26,400 1,512 Climbing Houston Center
Sat 11:22:26 AM 30.4694 -99.1028 284° West 392 451 27,900 1,366 Climbing Houston Center
Sat 11:23:28 AM 30.4931 -99.2139 284° West 382 440 29,200 1,344 Climbing Houston Center
Sat 11:24:31 AM 30.5236 -99.3547 284° West 381 438 30,700 1,200 Climbing Houston Center
Sat 11:25:33 AM 30.5486 -99.4692 284° West 372 428 31,700 871 Climbing Houston Center
Sat 11:26:35 AM 30.5742 -99.5861 284° West 373 429 32,500 774 Climbing Houston Center
Sat 11:27:37 AM 30.5994 -99.7039 284° West 377 434 33,300 823 Climbing Houston Center
Sat 11:28:39 AM 30.6250 -99.8222 284° West 378 435 34,200 919 Climbing Houston Center
Sat 11:29:41 AM 30.6544 -99.9614 284° West 375 432 35,200 774 Climbing Houston Center
Sat 11:30:43 AM 30.6781 -100.0783 283° West 373 429 35,800 387 Climbing Houston Center
Sat 11:31:45 AM 30.7025 -100.1931 284° West 373 429 36,000 97 Climbing Houston Center
Sat 11:32:47 AM 30.7261 -100.3083 283° West 372 428 36,000  Level Houston Center
Sat 11:33:49 AM 30.7506 -100.4244 284° West 372 428 36,000  Level Houston Center
Sat 11:34:51 AM 30.7803 -100.5642 284° West 372 428 36,000  Level Houston Center
Sat 11:35:53 AM 30.8039 -100.6817 283° West 373 429 36,000  Level Houston Center
Sat 11:36:55 AM 30.8286 -100.7975 284° West 373 429 36,000  Level Houston Center
Sat 11:37:57 AM 30.8506 -100.9167 282° West 374 430 36,000  Level Houston Center
Sat 11:38:59 AM 30.8756 -101.0336 284° West 374 430 36,000  Level Houston Center
Sat 11:40:01 AM 30.8975 -101.1506 282° West 375 432 36,000  Level Houston Center
Sat 11:41:03 AM 30.9261 -101.2914 283° West 375 432 36,000  Level Houston Center
Sat 11:42:05 AM 30.9472 -101.3967 283° West 373 429 36,000  Level Houston Center
Sat 11:43:07 AM 30.9692 -101.5111 283° West 368 423 36,000  Level Houston Center
Sat 11:44:09 AM 30.9975 -101.6483 284° West 367 422 36,000  Level Houston Center
Sat 11:45:11 AM 31.0200 -101.7625 283° West 364 419 36,000  Level Houston Center
Sat 11:46:13 AM 31.0419 -101.8764 283° West 362 417 36,000  Level Houston Center
Sat 11:47:15 AM 31.0642 -101.9903 283° West 362 417 36,000  Level Houston Center
Sat 11:48:17 AM 31.0856 -102.1031 283° West 360 414 36,000  Level Houston Center
Sat 11:49:19 AM 31.1072 -102.2167 283° West 359 413 36,000  Level Houston Center
Sat 11:50:21 AM 31.1281 -102.3314 282° West 358 412 36,000  Level Houston Center
Sat 11:51:24 AM 31.1533 -102.4656 282° West 352 405 36,000  Level Albuquerque Center
Sat 11:52:25 AM 31.1756 -102.5833 282° West 354 407 36,000  Level Albuquerque Center
Sat 11:53:27 AM 31.1964 -102.6953 282° West 353 406 36,000 -49 Level Albuquerque Center
Sat 11:54:28 AM 31.2172 -102.8058 282° West 350 403 35,900  Descending Albuquerque Center
Sat 11:55:30 AM 31.2378 -102.9158 282° West 349 402 36,000 49 Climbing Albuquerque Center
Sat 11:56:31 AM 31.2586 -103.0272 282° West 350 403 36,000  Level Albuquerque Center
Sat 11:57:33 AM 31.2775 -103.1367 281° West 346 398 36,000  Level Albuquerque Center
Sat 11:58:35 AM 31.2981 -103.2469 282° West 347 399 36,000  Level Albuquerque Center
Sat 11:59:36 AM 31.3186 -103.3561 282° West 346 398 36,000  Level Albuquerque Center
Sat 12:00:38 PM 31.3428 -103.4917 282° West 351 404 36,000  Level Albuquerque Center
Sat 12:01:39 PM 31.3633 -103.6044 282° West 353 406 36,000  Level Albuquerque Center
Sat 12:02:41 PM 31.3833 -103.7169 282° West 354 407 36,000  Level Albuquerque Center
Sat 12:03:43 PM 31.4022 -103.8286 281° West 354 407 36,000  Level Albuquerque Center
Sat 12:04:44 PM 31.4239 -103.9425 283° West 356 410 36,000  Level Albuquerque Center
Sat 12:05:46 PM 31.4456 -104.0561 283° West 358 412 36,000  Level Albuquerque Center
Sat 12:06:48 PM 31.4650 -104.1694 281° West 358 412 36,000 -49 Level Albuquerque Center
Sat 12:07:49 PM 31.4839 -104.2822 281° West 357 411 35,900  Descending Albuquerque Center
Sat 12:08:51 PM 31.5072 -104.4183 281° West 357 411 36,000 48 Climbing Albuquerque Center
Sat 12:09:53 PM 31.5261 -104.5292 281° West 352 405 36,000  Level Albuquerque Center
Sat 12:10:54 PM 31.5464 -104.6428 282° West 355 409 36,000  Level Albuquerque Center
Sat 12:11:56 PM 31.5656 -104.7558 281° West 357 411 36,000 -48 Level Albuquerque Center
Sat 12:12:58 PM 31.5853 -104.8697 282° West 358 412 35,900 -49 Descending Albuquerque Center
Sat 12:13:59 PM 31.6042 -104.9822 281° West 355 409 35,900 49 Level Albuquerque Center
Sat 12:15:01 PM 31.6267 -105.1142 281° West 349 402 36,000 48 Climbing Albuquerque Center
Sat 12:16:03 PM 31.6447 -105.2242 281° West 346 398 36,000 -49 Level Albuquerque Center
Sat 12:17:04 PM 31.6622 -105.3344 281° West 346 398 35,900  Descending Albuquerque Center
Sat 12:18:06 PM 31.6806 -105.4431 281° West 343 395 36,000 48 Climbing Albuquerque Center
Sat 12:19:08 PM 31.6981 -105.5525 281° West 342 394 36,000  Level Albuquerque Center
Sat 12:20:10 PM 31.7164 -105.6622 281° West 344 396 36,000  Level Albuquerque Center
Sat 12:21:11 PM 31.7378 -105.7944 281° West 345 397 36,000  Level Albuquerque Center
Sat 12:22:13 PM 31.7553 -105.9044 281° West 343 395 36,000  Level Albuquerque Center
Sat 12:23:15 PM 31.7733 -106.0150 281° West 346 398 36,000  Level Albuquerque Center
Sat 12:24:17 PM 31.7914 -106.1286 281° West 353 406 36,000  Level Albuquerque Center
Sat 12:25:19 PM 31.8114 -106.2411 282° West 354 407 36,000 -49 Level Albuquerque Center
Sat 12:26:20 PM 31.8222 -106.3561 276° West 354 407 35,900  Descending Albuquerque Center
Sat 12:27:22 PM 31.8325 -106.4897 275° West 347 399 36,000 48 Climbing Albuquerque Center
Sat 12:28:24 PM 31.8397 -106.6019 274° West 341 392 36,000  Level Albuquerque Center
Sat 12:29:26 PM 31.8483 -106.7108 275° West 336 387 36,000  Level Albuquerque Center
Sat 12:30:27 PM 31.8569 -106.8189 275° West 333 383 36,000  Level Albuquerque Center
Sat 12:31:29 PM 31.8647 -106.9289 275° West 336 387 36,000  Level Albuquerque Center
Sat 12:32:31 PM 31.8722 -107.0403 275° West 340 391 36,000  Level Albuquerque Center
Sat 12:33:33 PM 31.8850 -107.1508 278° West 340 391 36,000  Level Albuquerque Center
Sat 12:34:35 PM 31.9067 -107.2650 283° West 355 409 36,000  Level Albuquerque Center
Sat 12:35:37 PM 31.9278 -107.3772 283° West 352 405 36,000  Level Albuquerque Center
Sat 12:36:38 PM 31.9536 -107.5136 283° West 353 406 36,000  Level Albuquerque Center
Sat 12:37:40 PM 31.9739 -107.6247 282° West 349 402 36,000  Level Albuquerque Center
Sat 12:38:42 PM 31.9950 -107.7372 283° West 349 402 36,000  Level Albuquerque Center
Sat 12:39:44 PM 32.0169 -107.8522 283° West 357 411 36,000  Level Albuquerque Center
Sat 12:40:46 PM 32.0375 -107.9669 282° West 357 411 36,000 -49 Level Albuquerque Center
Sat 12:41:47 PM 32.0583 -108.0808 282° West 356 410 35,900  Descending Albuquerque Center
Sat 12:42:49 PM 32.0789 -108.1975 282° West 360 414 36,000  Climbing Albuquerque Center
Sat 12:43:51 PM 32.1047 -108.3364 282° West 362 417 35,900  Descending Albuquerque Center
Sat 12:44:53 PM 32.1250 -108.4483 282° West 354 407 36,000 -339 Climbing Albuquerque Center
Sat 12:45:55 PM 32.1433 -108.5483 282° West 356 410 35,200 -976 Descending Albuquerque Center
Sat 12:46:56 PM 32.1672 -108.6869 282° West 359 413 34,000 -585 Descending Albuquerque Center
Sat 12:47:58 PM 32.1881 -108.8011 282° West 357 411 34,000  Level Albuquerque Center
Sat 12:49:00 PM 32.2075 -108.9128 282° West 350 403 34,000  Level Albuquerque Center
Sat 12:50:01 PM 32.2272 -109.0283 281° West 355 409 34,000  Level Albuquerque Center
Sat 12:51:03 PM 32.2475 -109.1428 282° West 357 411 34,000  Level Albuquerque Center
Sat 12:52:05 PM 32.2681 -109.2586 282° West 359 413 34,000  Level Albuquerque Center
Sat 12:53:07 PM 32.2950 -109.3775 285° West 368 423 34,000  Level Albuquerque Center
Sat 12:54:08 PM 32.3303 -109.5178 287° West 371 427 34,000  Level Albuquerque Center
Sat 12:55:10 PM 32.3578 -109.6292 286° West 359 413 34,000  Level Albuquerque Center
Sat 12:56:12 PM 32.3839 -109.7414 285° West 354 407 34,000  Level Albuquerque Center
Sat 12:57:13 PM 32.4100 -109.8519 286° West 351 404 34,000  Level Albuquerque Center
Sat 12:58:15 PM 32.4397 -109.9681 287° West 362 417 34,000  Level Albuquerque Center
Sat 12:59:17 PM 32.4678 -110.0822 286° West 362 417 34,000 -677 Level Albuquerque Center
Sat 01:00:19 PM 32.4936 -110.1958 285° West 360 414 32,600 -1,935 Descending Albuquerque Center
Sat 01:01:21 PM 32.5200 -110.3056 286° West 352 405 30,000 -2,537 Descending Albuquerque Center
Sat 01:02:22 PM 32.5481 -110.4217 286° West 349 402 27,400 -2,683 Descending Albuquerque Center
Sat 01:03:24 PM 32.5797 -110.5572 286° West 355 409 24,500 -1,645 Descending Albuquerque Center
Sat 01:04:26 PM 32.6250 -110.6583 298° West 353 406 24,000 -242 Descending Albuquerque Center
Sat 01:05:28 PM 32.6803 -110.7603 303° West 364 419 24,000  Level Albuquerque Center
Sat 01:06:29 PM 32.7339 -110.8611 302° West 363 418 24,000 -634 Level Albuquerque Center
Sat 01:07:31 PM 32.7883 -110.9622 303° West 364 419 22,700 -1,694 Descending Albuquerque Center
Sat 01:08:33 PM 32.8394 -111.0608 302° West 355 409 20,500 -1,935 Descending Albuquerque Center
Sat 01:09:35 PM 32.8878 -111.1561 301° West 342 394 18,700 -1,984 Descending Albuquerque Center
Sat 01:10:37 PM 32.9383 -111.2644 299° West 314 361 16,400 -2,000 Descending Albuquerque Center
Sat 01:11:38 PM 32.9797 -111.3539 299° West 309 356 14,600 -1,415 Descending Albuquerque Center
Sat 01:12:40 PM 33.0178 -111.4361 299° West 285 328 13,500 -1,258 Descending Albuquerque Center
Sat 01:13:42 PM 33.0583 -111.5119 303° West 273 314 12,000 -1,500 Descending Albuquerque Center
Sat 01:14:44 PM 33.1111 -111.5789 313° West 293 337 10,400 -1,355 Descending Albuquerque Center
Sat 01:15:46 PM 33.1881 -111.6217 335° Northwest 305 351 9,200 -976 Descending Albuquerque Center
Sat 01:16:47 PM 33.2578 -111.6600 335° Northwest 280 322 8,400 -1,024 Descending Albuquerque Center
Sat 01:17:49 PM 33.3244 -111.7200 323° Northwest 250 288 7,100 -1,161 Descending Albuquerque Center
Sat 01:18:51 PM 33.3733 -111.7694 320° Northwest 232 267 6,000 -1,065 Descending Albuquerque Center
Sat 01:19:53 PM 33.4153 -111.8200 315° West 216 249 4,900 -1,366 Descending Albuquerque Center
Sat 01:20:54 PM 33.4289 -111.8775 286° West 190 219 3,200 -1,317 Descending Albuquerque Center
Sat 01:21:56 PM 33.4292 -111.9372 270° West 180 207 2,200 -871 Descending Albuquerque Center
Sat 01:22:58 PM 33.4286 -111.9931 269° West 157 181 1,400 -774 Descending Albuquerque Center
Sat 01:24:00 PM 33.4343 -112.0116 270° West  Level Estimated
Sat 01:31:00 PM 33.4343 -112.0116 40° Northeast  Level Estimated

Login

Don't have an account? Register now (free) for customized features, flight alerts, and more!